BBC Kwiatkowski — V2DT5 — position and weather

sailwx.info

Track history (hours):
 
Tides and Currents Weather Stations Pressure Air Temp Water Temp Dewpoint Dewpoint Depression Visibility Wind Speed Wind Dir Waves Ship Positions

BBC Kwiatkowski

Last reported at 2018-Jun-23 11:41 UTC. Time now 2018-Jun-23 23:38 UTC.
Position N 29°43' W 095°15'.

Length 122 m; draft 7.2 m.

Type: Ship. MMSI: 305240000.

Date/timePositionNaut miles runAvg speedWind from/ knotsBaromVisibWave heightAir tempDewpointWater temp
2018-Jun-23 11:41N 29°43' W 095°15'0 0.0
2018-Jun-23 11:30N 29°43' W 095°15'2 2.0
2018-Jun-23 10:37N 29°44' W 095°13'3 5.2
2018-Jun-23 10:02N 29°44' W 095°09'1 6.4
2018-Jun-23 09:55N 29°44' W 095°09'3 6.2
2018-Jun-23 09:28N 29°45' W 095°06'4 7.3
2018-Jun-23 08:57N 29°44' W 095°02'4 9.1
2018-Jun-23 08:31N 29°41' W 094°59'612.1
2018-Jun-23 08:00N 29°35' W 094°56'612.7
2018-Jun-23 07:30N 29°30' W 094°52'713.3
2018-Jun-23 07:00N 29°24' W 094°49'611.8
2018-Jun-23 06:29N 29°21' W 094°43'611.4
2018-Jun-23 06:00N 29°18' W 094°37'5 9.9
2018-Jun-23 05:30N 29°16' W 094°32'510.1
2018-Jun-23 05:00N 29°13' W 094°28'510.2
2018-Jun-23 04:30N 29°10' W 094°23'510.5
2018-Jun-23 04:00N 29°07' W 094°18'510.5
2018-Jun-23 03:30N 29°04' W 094°13'510.6
2018-Jun-23 03:00N 29°01' W 094°08'510.7
2018-Jun-23 02:30N 28°57' W 094°03'511.0
2018-Jun-23 02:00N 28°54' W 093°58'611.1
2018-Jun-23 01:30N 28°51' W 093°53'511.1
2018-Jun-23 01:00N 28°48' W 093°48'611.0
2018-Jun-23 00:30N 28°45' W 093°43'611.3
2018-Jun-23 00:00N 28°41' W 093°38'611.5
2018-Jun-22 23:28N 28°38' W 093°32'612.2
2018-Jun-22 22:57N 28°34' W 093°26'612.2
2018-Jun-22 22:27N 28°30' W 093°20'611.9
2018-Jun-22 21:58N 28°27' W 093°15'511.5
2018-Jun-22 21:30N 28°24' W 093°10'611.3
2018-Jun-22 20:57N 28°21' W 093°04'511.1
2018-Jun-22 20:30N 28°18' W 092°59'1011.3
2018-Jun-22 19:39N 28°12' W 092°51'  
Track history (hours):
 
Tides and Currents Weather Stations Pressure Air Temp Water Temp Dewpoint Dewpoint Depression Visibility Wind Speed Wind Dir Waves Ship Positions

BBC Kwiatkowski

Last reported at 2018-Jun-23 11:41 UTC. Time now 2018-Jun-23 23:38 UTC.
Position N 29°43' W 095°15'.

Length 122 m; draft 7.2 m.

Type: Ship. MMSI: 305240000.

Date/timePositionNaut miles runAvg speedWind from/ knotsBaromVisibWave heightAir tempDewpointWater temp
2018-Jun-23 11:41N 29°43' W 095°15'0 0.0
2018-Jun-23 11:30N 29°43' W 095°15'2 2.0
2018-Jun-23 10:37N 29°44' W 095°13'3 5.2
2018-Jun-23 10:02N 29°44' W 095°09'1 6.4
2018-Jun-23 09:55N 29°44' W 095°09'3 6.2
2018-Jun-23 09:28N 29°45' W 095°06'4 7.3
2018-Jun-23 08:57N 29°44' W 095°02'4 9.1
2018-Jun-23 08:31N 29°41' W 094°59'612.1
2018-Jun-23 08:00N 29°35' W 094°56'612.7
2018-Jun-23 07:30N 29°30' W 094°52'713.3
2018-Jun-23 07:00N 29°24' W 094°49'611.8
2018-Jun-23 06:29N 29°21' W 094°43'611.4
2018-Jun-23 06:00N 29°18' W 094°37'5 9.9
2018-Jun-23 05:30N 29°16' W 094°32'510.1
2018-Jun-23 05:00N 29°13' W 094°28'510.2
2018-Jun-23 04:30N 29°10' W 094°23'510.5
2018-Jun-23 04:00N 29°07' W 094°18'510.5
2018-Jun-23 03:30N 29°04' W 094°13'510.6
2018-Jun-23 03:00N 29°01' W 094°08'510.7
2018-Jun-23 02:30N 28°57' W 094°03'511.0
2018-Jun-23 02:00N 28°54' W 093°58'611.1
2018-Jun-23 01:30N 28°51' W 093°53'511.1
2018-Jun-23 01:00N 28°48' W 093°48'611.0
2018-Jun-23 00:30N 28°45' W 093°43'611.3
2018-Jun-23 00:00N 28°41' W 093°38'611.5
2018-Jun-22 23:28N 28°38' W 093°32'612.2
2018-Jun-22 22:57N 28°34' W 093°26'612.2
2018-Jun-22 22:27N 28°30' W 093°20'611.9
2018-Jun-22 21:58N 28°27' W 093°15'511.5
2018-Jun-22 21:30N 28°24' W 093°10'611.3
2018-Jun-22 20:57N 28°21' W 093°04'511.1
2018-Jun-22 20:30N 28°18' W 092°59'1011.3
2018-Jun-22 19:39N 28°12' W 092°51'  

Dump ship's entire track history